createdAt,value
2023-04-20T00:01:11.035Z,16.15
2023-04-20T00:03:38.568Z,14.63
2023-04-20T00:06:06.260Z,15.23
2023-04-20T00:08:33.527Z,12.48
2023-04-20T00:11:00.764Z,14.07
2023-04-20T00:13:28.122Z,16.83
2023-04-20T00:15:55.404Z,13.55
2023-04-20T00:18:22.704Z,11.35
2023-04-20T00:20:50.097Z,12.15
2023-04-20T00:23:18.718Z,14.90
2023-04-20T00:25:50.504Z,14.95
2023-04-20T00:28:19.353Z,11.50
2023-04-20T00:30:51.089Z,12.65
2023-04-20T00:33:19.758Z,11.07
2023-04-20T00:35:54.891Z,11.85
2023-04-20T00:38:25.361Z,10.98
2023-04-20T00:40:55.479Z,11.80
2023-04-20T00:43:28.177Z,12.35
2023-04-20T00:45:56.779Z,13.48
2023-04-20T00:48:26.074Z,13.82
2023-04-20T00:50:55.422Z,16.70
2023-04-20T00:53:24.883Z,22.30
2023-04-20T00:55:54.540Z,27.17
2023-04-20T00:58:24.937Z,30.65
2023-04-20T01:00:53.936Z,38.28
2023-04-20T01:03:22.969Z,30.33
2023-04-20T01:05:51.728Z,31.80
2023-04-20T01:08:18.994Z,23.88
2023-04-20T01:10:46.438Z,20.55
2023-04-20T01:13:13.692Z,17.48
2023-04-20T01:15:40.966Z,15.25
2023-04-20T01:18:09.676Z,14.82
2023-04-20T01:20:38.586Z,13.90
2023-04-20T01:23:05.784Z,16.30
2023-04-20T01:25:33.138Z,18.05
2023-04-20T01:28:00.550Z,21.70
2023-04-20T01:30:29.694Z,15.93
2023-04-20T01:32:56.941Z,18.35
2023-04-20T01:35:24.322Z,18.20
2023-04-20T01:37:52.036Z,15.98
2023-04-20T01:40:19.325Z,17.08
2023-04-20T01:42:46.575Z,18.33
2023-04-20T01:45:13.870Z,15.70
2023-04-20T01:47:41.174Z,13.77
2023-04-20T01:50:08.876Z,12.95
2023-04-20T01:52:36.268Z,13.13
2023-04-20T01:55:03.576Z,17.25
2023-04-20T01:57:30.829Z,11.98
2023-04-20T01:59:58.078Z,12.73
2023-04-20T02:02:25.434Z,14.57
2023-04-20T02:04:53.449Z,12.13
2023-04-20T02:07:21.089Z,12.55
2023-04-20T02:09:48.445Z,17.25
2023-04-20T02:12:15.900Z,17.55
2023-04-20T02:14:43.131Z,12.73
2023-04-20T02:17:10.999Z,14.30
2023-04-20T02:19:38.270Z,15.55
2023-04-20T02:22:05.728Z,13.77
2023-04-20T02:24:33.429Z,13.38
2023-04-20T02:27:01.523Z,13.00
2023-04-20T02:29:28.776Z,13.68
2023-04-20T02:31:56.098Z,13.07
2023-04-20T02:34:24.329Z,12.98
2023-04-20T02:36:51.558Z,13.02
2023-04-20T02:39:19.347Z,11.18
2023-04-20T02:41:46.792Z,13.27
2023-04-20T02:44:14.172Z,10.77
2023-04-20T02:46:41.608Z,14.18
2023-04-20T02:49:09.330Z,14.52
2023-04-20T02:51:40.998Z,16.05
2023-04-20T02:54:08.275Z,13.32
2023-04-20T02:56:36.237Z,13.38
2023-04-20T02:59:07.685Z,12.98
2023-04-20T03:01:53.927Z,11.65
2023-04-20T03:04:25.925Z,13.60
2023-04-20T03:07:04.192Z,10.27
2023-04-20T03:09:34.440Z,10.98
2023-04-20T03:12:14.516Z,13.93
2023-04-20T03:15:00.842Z,13.10
2023-04-20T03:17:40.264Z,14.52
2023-04-20T03:20:09.322Z,13.73
2023-04-20T03:22:37.433Z,14.82
2023-04-20T03:25:06.540Z,13.30
2023-04-20T03:27:49.040Z,12.85
2023-04-20T03:30:16.500Z,14.32
2023-04-20T03:32:47.167Z,12.70
2023-04-20T03:35:14.642Z,13.27
2023-04-20T03:37:43.277Z,14.73
2023-04-20T03:40:11.213Z,15.73
2023-04-20T03:42:38.539Z,12.88
2023-04-20T03:45:07.265Z,15.60
2023-04-20T03:47:34.576Z,14.10
2023-04-20T03:50:01.905Z,12.68
2023-04-20T03:52:29.226Z,13.63
2023-04-20T03:54:57.658Z,15.30
2023-04-20T03:57:25.052Z,14.27
2023-04-20T03:59:52.373Z,14.25
2023-04-20T04:02:22.916Z,13.77
2023-04-20T04:04:51.895Z,14.93
2023-04-20T04:07:21.619Z,14.32
2023-04-20T04:09:49.990Z,15.00
2023-04-20T04:12:18.085Z,14.60
2023-04-20T04:14:46.651Z,23.38
2023-04-20T04:17:16.003Z,28.25
2023-04-20T04:19:43.765Z,34.35
2023-04-20T04:22:11.235Z,36.60
2023-04-20T04:24:47.074Z,32.92
2023-04-20T04:27:16.531Z,21.95
2023-04-20T04:29:52.445Z,20.58
2023-04-20T04:32:21.748Z,17.80
2023-04-20T04:34:50.386Z,17.63
2023-04-20T04:37:17.811Z,20.75
2023-04-20T04:39:51.268Z,16.00
2023-04-20T04:42:27.746Z,17.40
2023-04-20T04:44:56.322Z,14.45
2023-04-20T04:47:34.630Z,14.77
2023-04-20T04:50:06.071Z,18.08
2023-04-20T04:52:33.949Z,18.25
2023-04-20T04:55:01.284Z,16.98
2023-04-20T04:57:28.790Z,17.45
2023-04-20T04:59:56.007Z,16.52
2023-04-20T05:02:23.298Z,17.85
2023-04-20T05:04:50.743Z,19.08
2023-04-20T05:07:18.276Z,22.00
2023-04-20T05:09:45.521Z,18.33
2023-04-20T05:12:12.765Z,18.15
2023-04-20T05:14:40.092Z,19.63
2023-04-20T05:17:07.371Z,17.92
2023-04-20T05:19:34.604Z,17.65
2023-04-20T05:22:01.806Z,18.85
2023-04-20T05:24:29.288Z,17.17
2023-04-20T05:26:56.568Z,18.10
2023-04-20T05:29:23.761Z,18.70
2023-04-20T05:31:51.032Z,15.60
2023-04-20T05:34:18.462Z,15.90
2023-04-20T05:36:47.201Z,17.98
2023-04-20T05:39:14.441Z,16.73
2023-04-20T05:41:41.721Z,17.13
2023-04-20T05:44:09.069Z,17.17
2023-04-20T05:46:36.306Z,16.90
2023-04-20T05:49:03.746Z,19.38
2023-04-20T05:51:34.021Z,18.55
2023-04-20T05:54:01.599Z,22.30
2023-04-20T05:56:28.903Z,16.90
2023-04-20T05:58:57.265Z,21.42
2023-04-20T06:01:24.484Z,15.65
2023-04-20T06:03:52.006Z,16.20
2023-04-20T06:06:19.340Z,16.83
2023-04-20T06:08:46.635Z,15.63
2023-04-20T06:11:13.933Z,15.55
2023-04-20T06:13:41.411Z,17.10
2023-04-20T06:16:11.021Z,15.20
2023-04-20T06:18:38.459Z,16.90
2023-04-20T06:21:05.795Z,18.00
2023-04-20T06:23:33.193Z,15.65
2023-04-20T06:26:00.633Z,19.20
2023-04-20T06:28:28.003Z,15.85
2023-04-20T06:30:55.529Z,15.27
2023-04-20T06:33:22.828Z,16.85
2023-04-20T06:35:51.672Z,14.27
2023-04-20T06:38:18.951Z,21.60
2023-04-20T06:40:46.359Z,13.25
2023-04-20T06:43:13.769Z,15.85
2023-04-20T06:45:41.333Z,18.00
2023-04-20T06:48:20.220Z,16.67
2023-04-20T06:50:55.123Z,16.70
2023-04-20T06:53:22.644Z,15.40
2023-04-20T06:55:49.992Z,12.88
2023-04-20T06:58:17.265Z,14.55
2023-04-20T07:00:44.513Z,18.20
2023-04-20T07:03:12.034Z,14.80
2023-04-20T07:05:39.445Z,12.73
2023-04-20T07:08:06.953Z,13.77
2023-04-20T07:10:34.176Z,12.93
2023-04-20T07:13:01.406Z,12.43
2023-04-20T07:15:28.666Z,12.20
2023-04-20T07:17:55.973Z,14.07
2023-04-20T07:20:23.356Z,12.80
2023-04-20T07:22:50.560Z,14.18
2023-04-20T07:25:17.926Z,13.65
2023-04-20T07:27:45.324Z,15.57
2023-04-20T07:30:12.945Z,14.60
2023-04-20T07:32:41.728Z,12.63
2023-04-20T07:35:09.580Z,11.88
2023-04-20T07:37:37.034Z,11.45
2023-04-20T07:40:07.767Z,12.98
2023-04-20T07:42:37.236Z,12.98
2023-04-20T07:45:05.969Z,13.48
2023-04-20T07:47:34.918Z,11.80
2023-04-20T07:50:02.532Z,15.18
2023-04-20T07:52:29.864Z,10.02
2023-04-20T07:54:59.347Z,12.05
2023-04-20T07:57:28.226Z,11.23
2023-04-20T07:59:55.545Z,13.45
2023-04-20T08:02:23.072Z,9.90
2023-04-20T08:04:50.970Z,12.80
2023-04-20T08:07:19.396Z,12.07
2023-04-20T08:09:46.601Z,12.43
2023-04-20T08:12:13.918Z,11.35
2023-04-20T08:14:41.454Z,11.70
2023-04-20T08:17:08.754Z,10.80
2023-04-20T08:19:36.354Z,10.45
2023-04-20T08:22:04.528Z,11.27
2023-04-20T08:24:32.228Z,11.07
2023-04-20T08:26:59.533Z,9.85
2023-04-20T08:29:26.915Z,14.55
2023-04-20T08:31:54.364Z,9.73
2023-04-20T08:34:22.117Z,10.55
2023-04-20T08:36:49.417Z,9.88
2023-04-20T08:39:21.869Z,12.80
2023-04-20T08:41:53.813Z,11.68
2023-04-20T08:44:21.752Z,13.15
2023-04-20T08:46:50.089Z,12.45
2023-04-20T08:49:19.073Z,12.85
2023-04-20T08:51:48.218Z,11.20
2023-04-20T08:54:16.930Z,11.70
2023-04-20T08:56:46.673Z,17.17
2023-04-20T08:59:14.972Z,13.30
2023-04-20T09:01:43.278Z,13.52
2023-04-20T09:04:27.297Z,11.27
2023-04-20T09:06:56.543Z,13.23
2023-04-20T09:09:25.738Z,13.13
2023-04-20T09:12:07.976Z,11.80
2023-04-20T09:14:46.319Z,11.77
2023-04-20T09:17:16.135Z,10.82
2023-04-20T09:19:53.435Z,14.65
2023-04-20T09:22:34.048Z,11.43
2023-04-20T09:25:12.172Z,11.05
2023-04-20T09:27:39.477Z,14.13
2023-04-20T09:30:07.943Z,11.40
2023-04-20T09:32:35.880Z,10.90
2023-04-20T09:35:03.160Z,12.02
2023-04-20T09:37:30.719Z,14.23
2023-04-20T09:40:00.881Z,13.68
2023-04-20T09:42:29.066Z,11.48
2023-04-20T09:44:57.535Z,11.75
2023-04-20T09:47:26.919Z,12.48
2023-04-20T09:49:54.879Z,10.93
2023-04-20T09:52:24.345Z,13.43
2023-04-20T09:54:52.084Z,12.05
2023-04-20T09:57:19.901Z,11.52
2023-04-20T09:59:47.590Z,12.27
2023-04-20T10:02:15.244Z,12.10
2023-04-20T10:04:57.279Z,13.15
2023-04-20T10:07:28.990Z,14.18
2023-04-20T10:10:07.690Z,14.68
2023-04-20T10:12:46.898Z,12.98
2023-04-20T10:15:14.353Z,13.32
2023-04-20T10:17:41.805Z,14.70
2023-04-20T10:20:27.731Z,14.25
2023-04-20T10:23:10.504Z,12.15
2023-04-20T10:25:37.873Z,15.65
2023-04-20T10:28:10.548Z,12.05
2023-04-20T10:30:49.617Z,12.65
2023-04-20T10:33:18.135Z,12.25
2023-04-20T10:35:49.748Z,13.65
2023-04-20T10:38:37.473Z,13.63
2023-04-20T10:41:12.226Z,14.20
2023-04-20T10:43:43.422Z,13.52
2023-04-20T10:46:24.905Z,11.88
2023-04-20T10:48:53.172Z,12.47
2023-04-20T10:51:21.274Z,11.45
2023-04-20T10:54:08.483Z,13.27
2023-04-20T10:56:45.906Z,13.80
2023-04-20T10:59:28.629Z,12.57
2023-04-20T11:01:56.230Z,12.63
2023-04-20T11:04:31.734Z,11.25
2023-04-20T11:07:10.600Z,24.42
2023-04-20T11:09:42.602Z,12.13
2023-04-20T11:14:52.700Z,11.43
2023-04-20T11:17:20.317Z,11.10
2023-04-20T11:19:47.791Z,9.98
2023-04-20T11:22:23.484Z,9.82
2023-04-20T11:24:50.899Z,11.90
2023-04-20T11:27:24.983Z,10.35
2023-04-20T11:29:59.840Z,9.30
2023-04-20T11:32:27.581Z,9.63
2023-04-20T11:35:06.410Z,10.63
2023-04-20T11:37:46.394Z,9.48
2023-04-20T11:40:15.207Z,11.52
2023-04-20T11:42:42.593Z,9.15
2023-04-20T11:45:11.754Z,9.38
2023-04-20T11:47:41.633Z,9.90
2023-04-20T11:50:10.464Z,10.75
2023-04-20T11:52:37.783Z,9.73
2023-04-20T11:55:06.009Z,9.20
2023-04-20T11:57:34.684Z,9.82
2023-04-20T12:00:02.069Z,9.23
2023-04-20T12:02:29.484Z,9.07
2023-04-20T12:04:57.158Z,10.00
2023-04-20T12:07:24.487Z,8.55
2023-04-20T12:09:51.737Z,8.38
2023-04-20T12:12:19.073Z,10.32
2023-04-20T12:14:46.360Z,9.18
2023-04-20T12:17:13.606Z,10.85
2023-04-20T12:19:40.846Z,9.57
2023-04-20T12:22:08.126Z,10.10
2023-04-20T12:24:35.351Z,9.35
2023-04-20T12:27:03.974Z,10.00
2023-04-20T12:29:33.125Z,10.80
2023-04-20T12:32:00.520Z,9.73
2023-04-20T12:34:27.885Z,11.95
2023-04-20T12:36:55.150Z,10.57
2023-04-20T12:39:22.526Z,10.50
2023-04-20T12:41:49.796Z,12.52
2023-04-20T12:44:17.737Z,10.30
2023-04-20T12:46:45.570Z,10.48
2023-04-20T12:49:12.821Z,9.95
2023-04-20T12:51:40.929Z,10.48
2023-04-20T12:54:08.616Z,10.48
2023-04-20T12:56:36.831Z,11.75
2023-04-20T12:59:04.195Z,11.00
2023-04-20T13:01:31.489Z,13.00
2023-04-20T13:03:58.920Z,10.00
2023-04-20T13:06:26.791Z,10.55
2023-04-20T13:08:54.225Z,11.23
2023-04-20T13:11:22.160Z,11.45
2023-04-20T13:13:49.407Z,10.70
2023-04-20T13:16:16.829Z,12.73
2023-04-20T13:18:44.142Z,11.02
2023-04-20T13:21:11.458Z,13.35
2023-04-20T13:23:40.018Z,11.95
2023-04-20T13:26:08.093Z,11.75
2023-04-20T13:28:35.477Z,12.32
2023-04-20T13:31:02.714Z,11.55
2023-04-20T13:33:30.347Z,11.02
2023-04-20T13:35:57.903Z,10.60
2023-04-20T13:38:25.258Z,11.50
2023-04-20T13:40:52.489Z,10.75
2023-04-20T13:43:21.467Z,12.10
2023-04-20T13:45:49.176Z,12.48
2023-04-20T13:48:16.533Z,12.65
2023-04-20T13:50:43.845Z,12.25
2023-04-20T13:53:11.115Z,11.05
2023-04-20T13:55:38.362Z,14.02
2023-04-20T13:58:05.637Z,12.35
2023-04-20T14:00:34.660Z,16.33
2023-04-20T14:03:02.466Z,12.60
2023-04-20T14:05:29.973Z,20.20
2023-04-20T14:08:01.480Z,14.05
2023-04-20T14:10:29.257Z,12.02
2023-04-20T14:12:56.690Z,14.20
2023-04-20T14:15:23.981Z,11.73
2023-04-20T14:17:52.657Z,10.32
2023-04-20T14:20:20.409Z,13.77
2023-04-20T14:22:47.738Z,15.65
2023-04-20T14:25:15.188Z,16.92
2023-04-20T14:27:42.552Z,13.07
2023-04-20T14:30:10.870Z,11.75
2023-04-20T14:32:38.142Z,12.95
2023-04-20T14:35:06.168Z,15.40
2023-04-20T14:37:33.514Z,13.60
2023-04-20T14:40:00.800Z,14.25
2023-04-20T14:42:28.075Z,14.00
2023-04-20T14:44:55.317Z,14.65
2023-04-20T14:47:22.598Z,12.65
2023-04-20T14:49:49.900Z,14.52
2023-04-20T14:52:17.210Z,13.73
2023-04-20T14:54:44.437Z,18.23
2023-04-20T14:57:11.658Z,15.27
2023-04-20T14:59:41.454Z,14.13
2023-04-20T15:02:08.946Z,13.60
2023-04-20T15:04:36.844Z,14.43
2023-04-20T15:07:04.339Z,13.63
2023-04-20T15:09:32.805Z,14.98
2023-04-20T15:12:00.136Z,14.85
2023-04-20T15:14:27.831Z,15.88
2023-04-20T15:16:55.340Z,14.98
2023-04-20T15:19:25.537Z,14.70
2023-04-20T15:21:52.754Z,13.80
2023-04-20T15:24:20.297Z,15.35
2023-04-20T15:26:47.757Z,13.82
2023-04-20T15:29:15.071Z,15.30
2023-04-20T15:31:43.571Z,16.10
2023-04-20T15:34:11.406Z,12.27
2023-04-20T15:36:38.747Z,14.48
2023-04-20T15:39:06.024Z,13.00
2023-04-20T15:41:33.379Z,13.85
2023-04-20T15:44:00.609Z,13.35
2023-04-20T15:46:27.904Z,12.57
2023-04-20T15:48:55.200Z,13.23
2023-04-20T15:51:22.814Z,13.18
2023-04-20T15:53:50.937Z,13.60
2023-04-20T15:56:18.879Z,13.18
2023-04-20T15:58:46.422Z,12.43
2023-04-20T16:01:13.729Z,15.55
2023-04-20T16:03:43.753Z,15.32
2023-04-20T16:06:31.736Z,18.90
2023-04-20T16:09:17.733Z,15.43
2023-04-20T16:11:45.023Z,13.98
2023-04-20T16:14:12.266Z,11.95
2023-04-20T16:16:39.533Z,15.27
2023-04-20T16:19:06.731Z,14.80
2023-04-20T16:21:34.663Z,13.32
2023-04-20T16:24:01.915Z,11.30
2023-04-20T16:26:29.241Z,12.52
2023-04-20T16:28:56.606Z,12.45
2023-04-20T16:31:24.179Z,12.90
2023-04-20T16:33:51.464Z,12.85
2023-04-20T16:36:18.791Z,13.73
2023-04-20T16:38:46.008Z,13.60
2023-04-20T16:41:13.309Z,15.25
2023-04-20T16:43:41.093Z,13.88
2023-04-20T16:46:12.889Z,13.60
2023-04-20T16:48:40.577Z,14.70
2023-04-20T16:51:09.775Z,13.27
2023-04-20T16:53:37.148Z,17.58
2023-04-20T16:56:04.472Z,12.88
2023-04-20T16:58:31.740Z,13.60
2023-04-20T17:00:59.093Z,13.75
2023-04-20T17:03:26.655Z,12.80
2023-04-20T17:05:54.049Z,14.15
2023-04-20T17:08:21.601Z,13.43
2023-04-20T17:10:48.880Z,15.10
2023-04-20T17:13:16.326Z,15.25
2023-04-20T17:15:45.135Z,15.00
2023-04-20T17:18:12.609Z,15.38
2023-04-20T17:20:41.789Z,16.15
2023-04-20T17:23:09.196Z,18.85
2023-04-20T17:25:36.459Z,16.95
2023-04-20T17:28:03.818Z,17.60
2023-04-20T17:30:31.304Z,17.38
2023-04-20T17:33:00.707Z,18.98
2023-04-20T17:35:27.982Z,16.27
2023-04-20T17:37:55.404Z,17.20
2023-04-20T17:40:22.684Z,18.25
2023-04-20T17:42:49.907Z,19.85
2023-04-20T17:45:17.442Z,18.35
2023-04-20T17:47:44.931Z,17.30
2023-04-20T17:50:13.692Z,36.70
2023-04-20T17:52:40.951Z,19.77
2023-04-20T17:55:08.998Z,19.88
2023-04-20T17:57:36.300Z,22.05
2023-04-20T18:00:05.261Z,21.15
2023-04-20T18:02:40.376Z,19.90
2023-04-20T18:05:08.160Z,20.58
2023-04-20T18:07:35.440Z,20.40
2023-04-20T18:10:03.981Z,20.42
2023-04-20T18:12:31.236Z,20.30
2023-04-20T18:14:58.532Z,20.20
2023-04-20T18:17:25.848Z,21.08
2023-04-20T18:19:53.136Z,19.48
2023-04-20T18:22:20.415Z,20.50
2023-04-20T18:24:47.656Z,22.38
2023-04-20T18:27:14.973Z,19.77
2023-04-20T18:29:42.244Z,21.40
2023-04-20T18:32:09.461Z,23.60
2023-04-20T18:34:36.962Z,21.52
2023-04-20T18:37:04.272Z,21.80
2023-04-20T18:39:31.566Z,21.98
2023-04-20T18:41:58.809Z,26.55
2023-04-20T18:44:28.364Z,23.83
2023-04-20T18:46:55.897Z,21.33
2023-04-20T18:49:23.287Z,21.90
2023-04-20T18:51:50.649Z,22.58
2023-04-20T18:54:18.211Z,21.88
2023-04-20T18:56:45.921Z,22.52
2023-04-20T18:59:13.249Z,23.17
2023-04-20T19:01:41.617Z,20.92
2023-04-20T19:04:09.278Z,21.15
2023-04-20T19:06:36.858Z,24.15
2023-04-20T19:09:06.539Z,25.20
2023-04-20T19:11:35.347Z,27.57
2023-04-20T19:14:02.839Z,24.23
2023-04-20T19:16:34.272Z,26.15
2023-04-20T19:19:03.077Z,22.80
2023-04-20T19:21:32.383Z,25.40
2023-04-20T19:23:59.752Z,25.02
2023-04-20T19:26:27.206Z,26.73
2023-04-20T19:28:54.618Z,28.45
2023-04-20T19:31:22.041Z,27.05
2023-04-20T19:33:49.358Z,22.25
2023-04-20T19:36:18.105Z,24.85
2023-04-20T19:38:45.996Z,24.80
2023-04-20T19:41:13.478Z,26.50
2023-04-20T19:43:41.124Z,26.67
2023-04-20T19:46:09.996Z,24.75
2023-04-20T19:48:37.638Z,23.23
2023-04-20T19:51:06.257Z,26.35
2023-04-20T19:53:34.092Z,31.25
2023-04-20T19:56:02.338Z,27.88
2023-04-20T19:58:30.653Z,27.20
2023-04-20T20:00:57.999Z,26.40
2023-04-20T20:03:25.590Z,29.00
2023-04-20T20:05:53.106Z,30.40
2023-04-20T20:08:20.562Z,25.65
2023-04-20T20:10:47.792Z,30.40
2023-04-20T20:13:15.132Z,26.75
2023-04-20T20:15:42.738Z,28.15
2023-04-20T20:18:12.518Z,26.98
2023-04-20T20:20:42.041Z,29.13
2023-04-20T20:23:09.722Z,28.52
2023-04-20T20:25:38.004Z,29.85
2023-04-20T20:28:05.827Z,27.83
2023-04-20T20:30:33.545Z,25.13
2023-04-20T20:33:01.202Z,30.38
2023-04-20T20:35:31.782Z,28.00
2023-04-20T20:38:00.309Z,27.33
2023-04-20T20:40:27.494Z,34.58
2023-04-20T20:42:54.756Z,32.38
2023-04-20T20:45:22.178Z,32.38
2023-04-20T20:47:49.937Z,30.05
2023-04-20T20:50:17.533Z,31.38
2023-04-20T20:52:44.782Z,30.48
2023-04-20T20:55:12.305Z,30.38
2023-04-20T20:57:39.697Z,31.02
2023-04-20T21:00:09.946Z,34.33
2023-04-20T21:02:37.429Z,30.50
2023-04-20T21:05:05.505Z,31.90
2023-04-20T21:07:32.828Z,30.92
2023-04-20T21:10:00.392Z,31.05
2023-04-20T21:12:27.658Z,32.97
2023-04-20T21:14:54.993Z,34.47
2023-04-20T21:17:22.282Z,33.38
2023-04-20T21:19:49.553Z,32.63
2023-04-20T21:22:16.851Z,32.20
2023-04-20T21:24:44.081Z,33.95
2023-04-20T21:27:11.435Z,39.50
2023-04-20T21:29:38.737Z,35.15
2023-04-20T21:32:06.073Z,37.83
2023-04-20T21:34:33.433Z,35.28
2023-04-20T21:37:04.239Z,32.97
2023-04-20T21:39:34.996Z,31.25
2023-04-20T21:42:03.408Z,30.60
2023-04-20T21:44:30.818Z,30.08
2023-04-20T21:46:58.112Z,32.47
2023-04-20T21:49:26.373Z,32.17
2023-04-20T21:51:53.654Z,34.10
2023-04-20T21:54:20.967Z,34.15
2023-04-20T21:56:48.260Z,34.42
2023-04-20T21:59:15.773Z,30.67
2023-04-20T22:01:43.095Z,30.75
2023-04-20T22:04:10.652Z,35.28
2023-04-20T22:06:38.172Z,27.23
2023-04-20T22:09:05.563Z,31.63
2023-04-20T22:11:36.654Z,30.70
2023-04-20T22:14:05.016Z,36.72
2023-04-20T22:16:34.082Z,31.30
2023-04-20T22:19:01.553Z,32.65
2023-04-20T22:21:28.936Z,26.75
2023-04-20T22:23:56.216Z,30.67
2023-04-20T22:26:23.522Z,29.73
2023-04-20T22:28:50.993Z,32.97
2023-04-20T22:31:18.379Z,28.33
2023-04-20T22:33:45.767Z,27.85
2023-04-20T22:36:13.247Z,31.80
2023-04-20T22:38:40.642Z,29.48
2023-04-20T22:41:08.033Z,30.23
2023-04-20T22:43:35.362Z,29.25
2023-04-20T22:46:02.579Z,34.08
2023-04-20T22:48:29.879Z,34.45
2023-04-20T22:51:00.795Z,32.00
2023-04-20T22:53:30.216Z,32.20
2023-04-20T22:56:05.579Z,32.88
2023-04-20T22:58:34.081Z,33.92
2023-04-20T23:01:01.378Z,34.78
2023-04-20T23:03:29.007Z,32.78
2023-04-20T23:05:57.723Z,32.03
2023-04-20T23:08:25.816Z,39.95
2023-04-20T23:10:56.226Z,33.20
2023-04-20T23:13:26.502Z,31.77
2023-04-20T23:15:54.001Z,29.48
2023-04-20T23:18:21.463Z,30.35
2023-04-20T23:20:48.737Z,32.78
2023-04-20T23:23:16.036Z,29.73
2023-04-20T23:25:43.879Z,30.33
2023-04-20T23:28:11.247Z,32.60
2023-04-20T23:30:38.559Z,32.00
2023-04-20T23:33:05.928Z,30.42
2023-04-20T23:35:33.641Z,34.30
2023-04-20T23:38:01.111Z,32.42
2023-04-20T23:40:28.379Z,33.22
2023-04-20T23:42:55.821Z,30.90
2023-04-20T23:45:23.485Z,31.55
2023-04-20T23:47:50.787Z,32.63
2023-04-20T23:50:18.076Z,34.17
2023-04-20T23:52:45.413Z,33.17
2023-04-20T23:55:12.665Z,31.55
2023-04-20T23:57:40.020Z,30.55
